Time;durP1;ratioP1;P1;durP2;ratioP2;P2;SDS_P1;SDS_P2;PMS_P1;PMS_P2;Temp;Humidity;BMP_temperature;BMP_pressure;BME280_temperature;BME280_humidity;BME280_pressure;Samples;Min_cycle;Max_cycle;Signal;HPM_P1;HPM_P2
2022/04/11 00:02:19;;;;;;;6.15;4.35;;;;;;;;;;4342593;28;10000784;-71
2022/04/11 00:04:45;;;;;;;6.07;4.30;;;;;;;;;;5048854;28;20036;-72
2022/04/11 00:07:11;;;;;;;7.70;4.47;;;;;;;;;;5056284;28;20028;-71
2022/04/11 00:09:37;;;;;;;11.63;5.38;;;;;;;;;;5049948;28;20471;-72
2022/04/11 00:12:03;;;;;;;9.25;5.57;;;;;;;;;;5051272;28;20032;-71
2022/04/11 00:14:29;;;;;;;10.15;5.80;;;;;;;;;;5044299;28;20180;-71
2022/04/11 00:16:55;;;;;;;8.43;5.32;;;;;;;;;;5052097;28;20124;-71
2022/04/11 00:19:21;;;;;;;9.98;5.97;;;;;;;;;;5054045;28;20040;-71
2022/04/11 00:21:47;;;;;;;8.15;5.40;;;;;;;;;;5049455;28;20036;-72
2022/04/11 00:24:13;;;;;;;8.52;5.43;;;;;;;;;;5048039;28;20043;-71
2022/04/11 00:26:39;;;;;;;9.85;5.63;;;;;;;;;;5049976;28;20033;-71
2022/04/11 00:29:05;;;;;;;8.32;5.40;;;;;;;;;;5051016;28;20552;-71
2022/04/11 00:31:31;;;;;;;8.68;5.50;;;;;;;;;;5052068;28;20063;-71
2022/04/11 00:33:57;;;;;;;8.25;5.07;;;;;;;;;;5074727;28;20387;-71
2022/04/11 00:36:23;;;;;;;9.95;5.22;;;;;;;;;;5092949;28;20043;-71
2022/04/11 00:38:49;;;;;;;6.10;4.40;;;;;;;;;;5098611;28;20131;-71
2022/04/11 00:41:15;;;;;;;7.05;4.25;;;;;;;;;;5099367;28;20096;-72
2022/04/11 00:43:41;;;;;;;5.80;4.00;;;;;;;;;;5104337;28;20653;-71
2022/04/11 00:46:08;;;;;;;6.57;4.20;;;;;;;;;;5093362;28;20056;-71
2022/04/11 00:48:35;;;;;;;8.20;4.47;;;;;;;;;;5098481;28;20123;-71
2022/04/11 00:51:03;;;;;;;6.78;4.40;;;;;;;;;;5093661;28;20023;-71
2022/04/11 00:53:30;;;;;;;6.00;4.10;;;;;;;;;;5093513;28;20027;-72
2022/04/11 00:55:57;;;;;;;7.10;4.97;;;;;;;;;;5099192;28;20088;-72
2022/04/11 00:58:23;;;;;;;7.22;4.68;;;;;;;;;;5099883;28;20131;-72
2022/04/11 01:00:49;;;;;;;6.10;4.40;;;;;;;;;;5094188;28;20028;-72
2022/04/11 01:03:15;;;;;;;7.78;4.75;;;;;;;;;;5098584;28;20076;-72
2022/04/11 01:05:42;;;;;;;7.30;4.00;;;;;;;;;;5096454;28;20035;-72
2022/04/11 01:08:09;;;;;;;5.43;4.15;;;;;;;;;;5093855;28;20051;-72
2022/04/11 01:10:35;;;;;;;5.93;4.10;;;;;;;;;;5102920;28;20468;-72
2022/04/11 01:13:01;;;;;;;5.40;4.07;;;;;;;;;;5096812;28;20038;-72
2022/04/11 01:15:27;;;;;;;5.15;3.80;;;;;;;;;;5095094;28;20053;-72
2022/04/11 01:17:53;;;;;;;5.60;3.80;;;;;;;;;;5100357;28;20214;-71
2022/04/11 01:20:20;;;;;;;5.18;3.30;;;;;;;;;;5098881;28;20032;-72
2022/04/11 01:22:47;;;;;;;5.45;3.63;;;;;;;;;;5101036;28;20019;-71
2022/04/11 01:25:17;;;;;;;6.95;3.53;;;;;;;;;;5096423;28;20314;-71
2022/04/11 01:27:43;;;;;;;4.95;3.30;;;;;;;;;;5102593;28;20023;-71
2022/04/11 01:30:10;;;;;;;4.03;3.03;;;;;;;;;;5094778;28;20515;-71
2022/04/11 01:32:37;;;;;;;3.97;2.90;;;;;;;;;;5098755;28;20028;-72
2022/04/11 01:35:03;;;;;;;5.68;3.38;;;;;;;;;;5097559;28;20040;-71
2022/04/11 01:37:29;;;;;;;5.05;3.28;;;;;;;;;;5096809;28;20028;-71
2022/04/11 01:39:55;;;;;;;4.78;3.53;;;;;;;;;;5094685;28;20027;-71
2022/04/11 01:42:21;;;;;;;5.10;3.47;;;;;;;;;;5096225;28;20161;-71
2022/04/11 01:44:47;;;;;;;5.28;3.60;;;;;;;;;;5091370;28;20024;-71
2022/04/11 01:47:13;;;;;;;7.65;3.63;;;;;;;;;;5104709;28;20444;-71
2022/04/11 01:49:39;;;;;;;5.03;3.47;;;;;;;;;;5090751;28;20035;-71
2022/04/11 01:52:05;;;;;;;6.18;3.53;;;;;;;;;;5096559;28;20028;-71
2022/04/11 01:54:32;;;;;;;5.32;3.60;;;;;;;;;;5100050;28;20032;-71
2022/04/11 01:56:58;;;;;;;5.53;3.33;;;;;;;;;;5097395;28;20417;-71
2022/04/11 01:59:24;;;;;;;7.28;3.42;;;;;;;;;;5104432;28;20157;-71
2022/04/11 02:01:50;;;;;;;5.53;3.50;;;;;;;;;;5098527;28;20588;-72
2022/04/11 02:04:16;;;;;;;5.90;3.28;;;;;;;;;;5094708;28;20023;-72
2022/04/11 02:06:42;;;;;;;7.68;3.60;;;;;;;;;;5104066;28;20024;-71
2022/04/11 02:09:09;;;;;;;6.90;3.95;;;;;;;;;;5091247;28;20024;-72
2022/04/11 02:11:34;;;;;;;5.70;3.55;;;;;;;;;;5091502;28;20150;-72
2022/04/11 02:14:00;;;;;;;5.45;3.38;;;;;;;;;;5096986;28;20114;-72
2022/04/11 02:16:27;;;;;;;6.22;3.35;;;;;;;;;;5088747;28;20046;-71
2022/04/11 02:18:52;;;;;;;6.75;3.40;;;;;;;;;;5088695;28;20725;-72
2022/04/11 02:21:19;;;;;;;6.05;3.40;;;;;;;;;;5089490;28;20117;-71
2022/04/11 02:23:46;;;;;;;6.55;3.28;;;;;;;;;;5094752;28;20083;-72
2022/04/11 02:26:12;;;;;;;6.20;3.53;;;;;;;;;;5101755;28;20031;-73
2022/04/11 02:28:38;;;;;;;5.35;3.13;;;;;;;;;;5101259;28;20044;-72
2022/04/11 02:31:04;;;;;;;7.13;3.22;;;;;;;;;;5094933;28;20024;-72
2022/04/11 02:33:30;;;;;;;4.60;2.88;;;;;;;;;;5100052;28;20467;-72
2022/04/11 02:35:56;;;;;;;4.20;2.97;;;;;;;;;;5091882;28;20031;-72
2022/04/11 02:38:22;;;;;;;3.65;2.83;;;;;;;;;;5099124;28;20431;-71
2022/04/11 02:40:48;;;;;;;4.40;2.80;;;;;;;;;;5100403;28;20047;-71
2022/04/11 02:43:14;;;;;;;4.38;2.70;;;;;;;;;;5091797;28;20039;-71
2022/04/11 02:45:40;;;;;;;5.05;2.70;;;;;;;;;;5091573;28;20728;-71
2022/04/11 02:48:06;;;;;;;6.07;3.25;;;;;;;;;;5091411;28;20051;-71
2022/04/11 02:50:32;;;;;;;4.70;3.20;;;;;;;;;;5101560;28;20388;-71
2022/04/11 02:52:58;;;;;;;4.55;2.72;;;;;;;;;;5090828;28;20043;-71
2022/04/11 02:55:24;;;;;;;3.72;2.90;;;;;;;;;;5095739;28;20027;-72
2022/04/11 02:57:50;;;;;;;4.93;3.35;;;;;;;;;;5093229;28;20051;-71
2022/04/11 03:00:17;;;;;;;3.72;3.15;;;;;;;;;;5096948;28;20729;-71
2022/04/11 03:02:44;;;;;;;5.43;3.45;;;;;;;;;;5096372;28;20032;-71
2022/04/11 03:05:10;;;;;;;4.40;3.35;;;;;;;;;;5090050;28;20782;-71
2022/04/11 03:07:36;;;;;;;5.78;3.55;;;;;;;;;;5098044;28;20024;-72
2022/04/11 03:10:02;;;;;;;9.95;4.57;;;;;;;;;;5089985;28;20032;-71
2022/04/11 03:12:28;;;;;;;8.52;4.22;;;;;;;;;;5088066;28;20040;-71
2022/04/11 03:14:54;;;;;;;9.02;4.20;;;;;;;;;;5087664;28;20035;-71
2022/04/11 03:17:20;;;;;;;8.57;4.72;;;;;;;;;;5090569;28;20379;-72
2022/04/11 03:19:46;;;;;;;7.45;4.60;;;;;;;;;;5096814;28;20023;-71
2022/04/11 03:22:12;;;;;;;6.45;4.60;;;;;;;;;;5101868;28;20043;-71
2022/04/11 03:24:38;;;;;;;8.63;4.78;;;;;;;;;;5099831;28;20041;-72
2022/04/11 03:27:04;;;;;;;7.20;4.75;;;;;;;;;;5090774;28;20032;-71
2022/04/11 03:29:30;;;;;;;8.05;4.72;;;;;;;;;;5088423;28;20054;-72
2022/04/11 03:31:57;;;;;;;7.80;4.40;;;;;;;;;;5095054;28;20028;-72
2022/04/11 03:34:23;;;;;;;6.88;4.80;;;;;;;;;;5090124;28;20034;-72
2022/04/11 03:36:51;;;;;;;7.90;4.45;;;;;;;;;;5090231;28;20019;-72
2022/04/11 03:39:17;;;;;;;7.90;4.80;;;;;;;;;;5090505;28;20027;-72
2022/04/11 03:41:43;;;;;;;7.38;4.50;;;;;;;;;;5091791;28;20129;-71
2022/04/11 03:44:10;;;;;;;6.40;4.75;;;;;;;;;;5091294;28;20496;-72
2022/04/11 03:46:36;;;;;;;7.28;4.72;;;;;;;;;;5086379;28;20047;-71
2022/04/11 03:49:02;;;;;;;8.63;5.22;;;;;;;;;;5090006;28;20027;-71
2022/04/11 03:51:28;;;;;;;7.72;4.63;;;;;;;;;;5090817;28;20028;-71
2022/04/11 03:53:55;;;;;;;9.68;5.45;;;;;;;;;;5088755;28;20101;-72
2022/04/11 03:56:21;;;;;;;6.63;4.68;;;;;;;;;;5087859;28;20047;-71
2022/04/11 03:58:47;;;;;;;7.13;4.90;;;;;;;;;;5092924;28;20028;-71
2022/04/11 04:01:13;;;;;;;7.70;4.90;;;;;;;;;;5091742;28;20042;-71
2022/04/11 04:03:40;;;;;;;7.18;4.10;;;;;;;;;;5086097;28;20396;-71
2022/04/11 04:06:06;;;;;;;6.72;4.10;;;;;;;;;;5086449;28;20557;-71
2022/04/11 04:08:32;;;;;;;6.53;4.05;;;;;;;;;;5085789;28;20043;-71
2022/04/11 04:10:58;;;;;;;7.60;3.90;;;;;;;;;;5091932;28;20111;-71
2022/04/11 04:13:24;;;;;;;5.78;3.92;;;;;;;;;;5089480;28;20079;-71
2022/04/11 04:15:50;;;;;;;6.45;4.22;;;;;;;;;;5087461;28;20066;-71
2022/04/11 04:18:16;;;;;;;5.47;4.03;;;;;;;;;;5092216;28;21542;-71
2022/04/11 04:20:42;;;;;;;5.75;3.75;;;;;;;;;;5090407;28;20138;-71
2022/04/11 04:23:09;;;;;;;8.00;3.70;;;;;;;;;;5103982;28;20252;-72
2022/04/11 04:25:35;;;;;;;4.85;3.22;;;;;;;;;;5089165;28;20028;-71
2022/04/11 04:28:01;;;;;;;4.60;3.10;;;;;;;;;;5096353;28;20031;-71
2022/04/11 04:30:28;;;;;;;5.68;3.65;;;;;;;;;;5101230;28;20047;-72
2022/04/11 04:32:55;;;;;;;5.07;3.58;;;;;;;;;;5102324;28;20028;-71
2022/04/11 04:35:21;;;;;;;4.53;3.25;;;;;;;;;;5087621;28;20438;-71
2022/04/11 04:37:47;;;;;;;5.30;3.40;;;;;;;;;;5095553;28;20016;-71
2022/04/11 04:40:13;;;;;;;5.72;3.60;;;;;;;;;;5087398;28;20094;-71
2022/04/11 04:42:39;;;;;;;4.90;3.22;;;;;;;;;;5087397;28;20024;-72
2022/04/11 04:45:07;;;;;;;4.47;3.38;;;;;;;;;;4727539;28;10000550;-72
2022/04/11 04:47:33;;;;;;;7.47;3.70;;;;;;;;;;5087891;28;20273;-72
2022/04/11 04:50:00;;;;;;;8.32;3.88;;;;;;;;;;5095822;28;20103;-72
2022/04/11 04:52:26;;;;;;;5.35;3.58;;;;;;;;;;5090816;28;20039;-72
2022/04/11 04:54:52;;;;;;;5.50;3.70;;;;;;;;;;5078304;28;20531;-71
2022/04/11 04:57:18;;;;;;;8.70;3.58;;;;;;;;;;5078845;28;20031;-71
2022/04/11 04:59:44;;;;;;;6.55;3.70;;;;;;;;;;5094649;28;20027;-72
2022/04/11 05:02:10;;;;;;;5.05;3.47;;;;;;;;;;5091162;28;20034;-71
2022/04/11 05:04:36;;;;;;;5.72;3.70;;;;;;;;;;5084338;28;20547;-71
2022/04/11 05:07:02;;;;;;;11.05;4.93;;;;;;;;;;5085829;28;20050;-71
2022/04/11 05:09:28;;;;;;;6.78;4.75;;;;;;;;;;5088292;28;20092;-71
2022/04/11 05:11:54;;;;;;;6.80;4.60;;;;;;;;;;5088976;28;20126;-71
2022/04/11 05:14:20;;;;;;;7.68;4.65;;;;;;;;;;5086276;28;20027;-73
2022/04/11 05:16:46;;;;;;;11.32;5.25;;;;;;;;;;5091935;28;20046;-71
2022/04/11 05:19:12;;;;;;;9.63;5.35;;;;;;;;;;5088926;28;20467;-71
2022/04/11 05:21:38;;;;;;;9.18;4.95;;;;;;;;;;5083938;28;20043;-72
2022/04/11 05:24:04;;;;;;;8.85;5.28;;;;;;;;;;5097692;28;20058;-71
2022/04/11 05:26:30;;;;;;;8.63;5.63;;;;;;;;;;5104211;28;20032;-72
2022/04/11 05:28:56;;;;;;;12.82;6.55;;;;;;;;;;5087905;28;20056;-71
2022/04/11 05:31:22;;;;;;;14.05;8.52;;;;;;;;;;5105541;28;20034;-71
2022/04/11 05:33:48;;;;;;;16.63;9.35;;;;;;;;;;5105602;28;20039;-71
2022/04/11 05:36:17;;;;;;;22.23;12.45;;;;;;;;;;5099944;28;20178;-71
2022/04/11 05:38:43;;;;;;;24.88;13.30;;;;;;;;;;5093238;28;20369;-71
2022/04/11 05:41:09;;;;;;;16.75;9.98;;;;;;;;;;5087128;28;20024;-71
2022/04/11 05:43:35;;;;;;;16.27;7.07;;;;;;;;;;5086944;28;20422;-71
2022/04/11 05:46:02;;;;;;;8.85;6.15;;;;;;;;;;5090261;28;20036;-72
2022/04/11 05:48:30;;;;;;;7.57;5.75;;;;;;;;;;5095886;28;20450;-72
2022/04/11 05:50:57;;;;;;;9.07;5.28;;;;;;;;;;5102887;28;21488;-71
2022/04/11 05:53:23;;;;;;;7.85;4.80;;;;;;;;;;5100322;28;20652;-72
2022/04/11 05:55:49;;;;;;;10.48;5.80;;;;;;;;;;5086338;28;20028;-71
2022/04/11 05:58:15;;;;;;;9.40;5.93;;;;;;;;;;5088311;28;20524;-72
2022/04/11 06:00:41;;;;;;;8.55;5.05;;;;;;;;;;5093434;28;20048;-72
2022/04/11 06:03:07;;;;;;;6.95;5.30;;;;;;;;;;5094794;28;20032;-72
2022/04/11 06:05:33;;;;;;;7.95;5.55;;;;;;;;;;5086638;28;20067;-71
2022/04/11 06:07:59;;;;;;;6.18;5.28;;;;;;;;;;5097312;28;20036;-71
2022/04/11 06:10:25;;;;;;;9.63;5.47;;;;;;;;;;5089758;28;20613;-71
2022/04/11 06:12:51;;;;;;;8.70;5.53;;;;;;;;;;5091249;28;20059;-72
2022/04/11 06:15:18;;;;;;;10.90;5.60;;;;;;;;;;5097375;28;20055;-72
2022/04/11 06:17:44;;;;;;;11.30;6.38;;;;;;;;;;5096313;28;20028;-72
2022/04/11 06:20:11;;;;;;;9.77;5.78;;;;;;;;;;5099033;28;20190;-72
2022/04/11 06:22:38;;;;;;;8.07;5.60;;;;;;;;;;5090694;28;20544;-72
2022/04/11 06:25:05;;;;;;;11.20;6.30;;;;;;;;;;5090261;28;20036;-71
2022/04/11 06:27:34;;;;;;;9.05;6.05;;;;;;;;;;5105937;28;20065;-71
2022/04/11 06:30:00;;;;;;;11.32;6.45;;;;;;;;;;5090154;28;20147;-71
2022/04/11 06:32:30;;;;;;;9.55;6.88;;;;;;;;;;5099902;28;20027;-71
2022/04/11 06:34:56;;;;;;;9.80;6.05;;;;;;;;;;5105362;28;20111;-71
2022/04/11 06:37:23;;;;;;;11.63;6.82;;;;;;;;;;5097716;28;20016;-71
2022/04/11 06:39:50;;;;;;;7.50;5.78;;;;;;;;;;5090204;28;20043;-71
2022/04/11 06:42:16;;;;;;;9.95;6.13;;;;;;;;;;4738733;28;10000148;-74
2022/04/11 06:44:42;;;;;;;10.65;7.10;;;;;;;;;;5066372;28;20127;-73
2022/04/11 06:47:08;;;;;;;10.73;6.68;;;;;;;;;;5075996;28;20036;-73
2022/04/11 06:49:35;;;;;;;15.02;8.35;;;;;;;;;;5088479;28;20028;-73
2022/04/11 06:52:01;;;;;;;22.48;11.98;;;;;;;;;;5102743;28;20129;-71
2022/04/11 06:54:27;;;;;;;18.73;13.02;;;;;;;;;;5088749;28;20115;-71
2022/04/11 06:56:54;;;;;;;19.55;10.13;;;;;;;;;;5093972;28;20588;-71
2022/04/11 06:59:20;;;;;;;15.90;10.40;;;;;;;;;;5098781;28;20024;-71
2022/04/11 07:01:46;;;;;;;13.48;9.23;;;;;;;;;;5090942;28;20031;-71
2022/04/11 07:04:13;;;;;;;12.93;8.23;;;;;;;;;;5087656;28;20028;-72
2022/04/11 07:06:39;;;;;;;10.13;7.45;;;;;;;;;;5097640;28;20032;-72
2022/04/11 07:09:05;;;;;;;8.60;6.40;;;;;;;;;;5096656;28;20506;-71
2022/04/11 07:11:31;;;;;;;8.20;5.88;;;;;;;;;;5099525;28;20031;-72
2022/04/11 07:13:58;;;;;;;7.75;6.07;;;;;;;;;;5096976;28;20040;-71
2022/04/11 07:16:24;;;;;;;9.48;5.70;;;;;;;;;;5090831;28;20051;-71
2022/04/11 07:18:51;;;;;;;7.53;5.47;;;;;;;;;;5108138;28;20097;-72
2022/04/11 07:21:20;;;;;;;10.43;5.53;;;;;;;;;;5109170;28;20023;-72
2022/04/11 07:23:46;;;;;;;8.30;5.78;;;;;;;;;;5086739;28;20021;-72
2022/04/11 07:26:12;;;;;;;8.80;5.72;;;;;;;;;;5088397;28;20055;-72
2022/04/11 07:28:39;;;;;;;8.57;5.38;;;;;;;;;;5090483;28;20104;-72
2022/04/11 07:31:06;;;;;;;8.98;5.32;;;;;;;;;;5098869;28;20036;-71
2022/04/11 07:33:32;;;;;;;9.52;5.78;;;;;;;;;;5090818;28;20028;-71
2022/04/11 07:35:58;;;;;;;7.43;5.57;;;;;;;;;;5097922;28;20064;-72
2022/04/11 07:38:25;;;;;;;8.75;5.82;;;;;;;;;;5101348;28;20117;-71
2022/04/11 07:40:51;;;;;;;9.98;6.25;;;;;;;;;;5088573;28;20024;-72
2022/04/11 07:43:17;;;;;;;7.75;5.40;;;;;;;;;;5093805;28;20107;-71
2022/04/11 07:45:43;;;;;;;10.20;6.38;;;;;;;;;;5095125;28;20119;-71
2022/04/11 07:48:09;;;;;;;9.80;5.82;;;;;;;;;;5094930;28;20399;-71
2022/04/11 07:50:35;;;;;;;9.40;6.60;;;;;;;;;;5090867;28;20024;-71
2022/04/11 07:53:01;;;;;;;7.68;5.78;;;;;;;;;;5096537;28;20119;-71
2022/04/11 07:55:27;;;;;;;9.60;6.40;;;;;;;;;;5105143;28;20126;-71
2022/04/11 07:57:54;;;;;;;10.50;6.18;;;;;;;;;;5097335;28;20085;-71
2022/04/11 08:00:20;;;;;;;10.27;6.25;;;;;;;;;;5093464;28;20495;-72
2022/04/11 08:02:50;;;;;;;9.55;5.95;;;;;;;;;;5100488;28;20039;-71
2022/04/11 08:05:19;;;;;;;9.68;6.75;;;;;;;;;;5097951;28;20104;-72
2022/04/11 08:07:45;;;;;;;10.48;5.47;;;;;;;;;;5096273;28;20111;-72
2022/04/11 08:10:11;;;;;;;9.13;6.50;;;;;;;;;;5094802;28;20143;-72
2022/04/11 08:12:37;;;;;;;7.85;6.70;;;;;;;;;;5098750;28;20043;-71
2022/04/11 08:15:03;;;;;;;10.32;6.95;;;;;;;;;;5094622;28;20035;-72
2022/04/11 08:17:29;;;;;;;16.48;11.05;;;;;;;;;;5094324;28;20077;-72
2022/04/11 08:19:55;;;;;;;15.68;9.90;;;;;;;;;;5101185;28;20023;-75
2022/04/11 08:22:21;;;;;;;10.50;6.95;;;;;;;;;;5089509;28;20024;-74
2022/04/11 08:24:47;;;;;;;17.73;12.30;;;;;;;;;;5090085;28;20028;-75
2022/04/11 08:27:13;;;;;;;11.05;5.68;;;;;;;;;;5094728;28;20379;-72
2022/04/11 08:29:39;;;;;;;9.48;6.10;;;;;;;;;;5094438;28;20059;-72
2022/04/11 08:32:05;;;;;;;9.35;7.15;;;;;;;;;;5086771;28;20044;-72
2022/04/11 08:34:31;;;;;;;11.10;7.30;;;;;;;;;;5088239;28;20028;-72
2022/04/11 08:36:57;;;;;;;10.02;6.82;;;;;;;;;;5089864;28;20115;-72
2022/04/11 08:39:24;;;;;;;7.15;5.75;;;;;;;;;;5088883;28;20503;-72
2022/04/11 08:41:51;;;;;;;8.32;5.60;;;;;;;;;;5088045;28;20520;-72
2022/04/11 08:44:18;;;;;;;5.80;5.07;;;;;;;;;;5091721;28;20036;-72
2022/04/11 08:46:44;;;;;;;6.38;5.50;;;;;;;;;;5104810;28;20027;-72
2022/04/11 08:49:10;;;;;;;7.72;5.53;;;;;;;;;;5098558;28;20391;-72
2022/04/11 08:51:37;;;;;;;9.18;5.43;;;;;;;;;;5090612;28;20028;-72
2022/04/11 08:54:05;;;;;;;7.22;5.63;;;;;;;;;;5096296;28;20487;-72
2022/04/11 08:56:31;;;;;;;7.25;5.10;;;;;;;;;;5093595;28;20038;-72
2022/04/11 08:58:57;;;;;;;7.72;5.50;;;;;;;;;;5105351;28;20467;-72
2022/04/11 09:01:24;;;;;;;9.70;5.80;;;;;;;;;;5106573;28;20421;-72
2022/04/11 09:03:50;;;;;;;8.43;6.00;;;;;;;;;;5097593;28;20108;-72
2022/04/11 09:06:18;;;;;;;8.23;5.40;;;;;;;;;;5102275;28;20106;-72
2022/04/11 09:08:55;;;;;;;9.48;5.70;;;;;;;;;;5099593;28;20051;-71
2022/04/11 09:11:37;;;;;;;9.30;6.00;;;;;;;;;;5099824;28;20484;-72
2022/04/11 09:14:04;;;;;;;7.57;5.60;;;;;;;;;;5092671;28;20082;-72
2022/04/11 09:16:48;;;;;;;12.38;5.90;;;;;;;;;;5091595;28;20020;-72
2022/04/11 09:19:24;;;;;;;9.75;5.85;;;;;;;;;;5099513;28;20032;-72
2022/04/11 09:21:54;;;;;;;7.40;5.63;;;;;;;;;;4735539;28;9999983;-72
2022/04/11 09:24:20;;;;;;;9.88;6.30;;;;;;;;;;5082087;28;20043;-72
2022/04/11 09:26:47;;;;;;;8.88;5.35;;;;;;;;;;5098536;28;20426;-72
2022/04/11 09:29:17;;;;;;;8.95;6.13;;;;;;;;;;5089364;28;20508;-72
2022/04/11 09:31:43;;;;;;;10.70;5.55;;;;;;;;;;5089553;28;20085;-72
2022/04/11 09:34:22;;;;;;;11.30;6.43;;;;;;;;;;5088129;28;20036;-71
2022/04/11 09:36:53;;;;;;;10.20;5.78;;;;;;;;;;5103029;28;20041;-72
2022/04/11 09:39:30;;;;;;;6.68;5.45;;;;;;;;;;5092554;28;20629;-72
2022/04/11 09:41:57;;;;;;;8.25;5.20;;;;;;;;;;5086271;28;20107;-72
2022/04/11 09:44:30;;;;;;;8.93;5.53;;;;;;;;;;5093624;28;20098;-73
2022/04/11 09:46:59;;;;;;;7.18;5.28;;;;;;;;;;5087701;28;20020;-71
2022/04/11 09:49:25;;;;;;;8.73;5.82;;;;;;;;;;5089737;28;20249;-71
2022/04/11 09:52:08;;;;;;;6.38;4.82;;;;;;;;;;5085425;28;20056;-72
2022/04/11 09:54:35;;;;;;;6.28;4.22;;;;;;;;;;5089605;28;20055;-72
2022/04/11 09:57:02;;;;;;;6.93;4.40;;;;;;;;;;5099919;28;20032;-72
2022/04/11 09:59:28;;;;;;;8.38;4.43;;;;;;;;;;5085790;28;20038;-72
2022/04/11 10:01:56;;;;;;;9.70;4.30;;;;;;;;;;5089766;28;20691;-71
2022/04/11 10:04:23;;;;;;;6.15;4.70;;;;;;;;;;5097910;28;20101;-72
2022/04/11 10:06:49;;;;;;;7.20;4.72;;;;;;;;;;5093114;28;20430;-71
2022/04/11 10:09:16;;;;;;;9.77;4.18;;;;;;;;;;5087291;28;20618;-70
2022/04/11 10:11:45;;;;;;;12.90;4.25;;;11.50;94.60;;;;;;5089618;28;20024;-72
2022/04/11 10:14:12;;;;;;;7.40;4.03;;;11.70;96.10;;;;;;5084176;28;20365;-71
2022/04/11 10:16:42;;;;;;;11.00;4.10;;;11.70;95.90;;;;;;5087782;28;20695;-71
2022/04/11 10:19:08;;;;;;;8.18;4.20;;;;;;;;;;5089519;28;20028;-71
2022/04/11 10:21:39;;;;;;;7.88;3.60;;;11.70;91.50;;;;;;5097008;28;20020;-71
2022/04/11 10:24:07;;;;;;;7.40;3.85;;;11.90;91.90;;;;;;5090526;28;20020;-71
2022/04/11 10:26:55;;;;;;;5.90;3.90;;;11.90;90.60;;;;;;5092195;28;20036;-72
2022/04/11 10:29:36;;;;;;;6.88;3.97;;;11.90;88.00;;;;;;5085788;28;20054;-72
2022/04/11 10:32:10;;;;;;;6.93;3.63;;;12.00;91.20;;;;;;5086905;28;20032;-71
2022/04/11 10:34:55;;;;;;;6.32;3.58;;;12.10;89.20;;;;;;5092172;28;20118;-71
2022/04/11 10:37:27;;;;;;;7.65;3.88;;;12.30;88.40;;;;;;5092103;28;20024;-71
2022/04/11 10:40:13;;;;;;;5.38;3.70;;;12.30;86.20;;;;;;5088620;28;20035;-71
2022/04/11 10:42:58;;;;;;;8.10;4.40;;;12.40;90.10;;;;;;5101640;28;20032;-71
2022/04/11 10:45:31;;;;;;;8.82;4.03;;;12.60;89.30;;;;;;5104328;28;20119;-72
2022/04/11 10:47:57;;;;;;;7.85;4.13;;;12.70;88.10;;;;;;5086358;28;20039;-71
2022/04/11 10:50:32;;;;;;;7.78;3.92;;;12.80;88.10;;;;;;5085394;28;20267;-71
2022/04/11 10:53:24;;;;;;;6.30;4.00;;;12.90;87.80;;;;;;5097080;28;20031;-71
2022/04/11 10:56:02;;;;;;;6.57;3.60;;;13.00;85.50;;;;;;5089099;28;20032;-73
2022/04/11 10:58:48;;;;;;;6.95;3.47;;;13.20;86.50;;;;;;5100611;28;20055;-72
2022/04/11 11:01:15;;;;;;;5.95;3.63;;;13.40;83.40;;;;;;5085936;28;20055;-72
2022/04/11 11:03:57;;;;;;;6.00;3.55;;;13.40;81.60;;;;;;5095641;28;20035;-69
2022/04/11 11:06:23;;;;;;;7.22;3.75;;;13.50;79.10;;;;;;5086507;28;20032;-72
2022/04/11 11:08:49;;;;;;;4.90;3.60;;;13.50;80.50;;;;;;5090845;28;20031;-71
2022/04/11 11:11:24;;;;;;;7.88;5.00;;;13.60;82.10;;;;;;5084814;28;20031;-71
2022/04/11 11:13:51;;;;;;;5.82;3.15;;;13.60;82.70;;;;;;5089712;28;20071;-71
2022/04/11 11:16:17;;;;;;;4.60;3.20;;;13.50;74.00;;;;;;5087576;28;20032;-71
2022/04/11 11:18:49;;;;;;;4.85;2.90;;;13.50;72.00;;;;;;5091552;28;20038;-71
2022/04/11 11:21:27;;;;;;;6.82;3.70;;;13.40;72.40;;;;;;5094906;28;20448;-71
2022/04/11 11:24:08;;;;;;;7.60;4.00;;;13.40;73.20;;;;;;5083032;28;20550;-70
2022/04/11 11:26:45;;;;;;;4.43;3.55;;;13.50;76.20;;;;;;5093597;28;20424;-71
2022/04/11 11:29:24;;;;;;;6.38;3.42;;;13.60;74.60;;;;;;5105400;28;20067;-71
2022/04/11 11:31:55;;;;;;;6.32;3.05;;;13.60;72.70;;;;;;5096981;28;20421;-71
2022/04/11 11:34:23;;;;;;;5.53;2.90;;;13.60;71.70;;;;;;5097135;28;20035;-70
2022/04/11 11:36:49;;;;;;;8.63;3.53;;;13.60;67.70;;;;;;5086968;28;20055;-70
2022/04/11 11:39:22;;;;;;;4.70;2.80;;;13.70;73.10;;;;;;5087686;28;20032;-70
2022/04/11 11:41:50;;;;;;;5.18;3.10;;;13.80;72.30;;;;;;5085381;28;20179;-70
2022/04/11 11:44:16;;;;;;;4.28;3.42;;;13.80;70.60;;;;;;5093807;28;20108;-71
2022/04/11 11:46:56;;;;;;;6.57;2.95;;;14.00;70.70;;;;;;5084250;28;20167;-71
2022/04/11 11:49:23;;;;;;;4.43;2.85;;;14.00;67.50;;;;;;5087262;28;20050;-71
2022/04/11 11:51:50;;;;;;;7.43;3.60;;;14.00;67.90;;;;;;5095527;28;20051;-71
2022/04/11 11:54:39;;;;;;;5.25;2.78;;;14.10;68.50;;;;;;5082133;28;20603;-71
2022/04/11 11:57:14;;;;;;;9.60;4.38;;;14.20;68.30;;;;;;5091408;28;20028;-70
2022/04/11 11:59:50;;;;;;;4.97;3.20;;;14.30;68.80;;;;;;5098200;28;20335;-70
2022/04/11 12:05:00;;;;;;;5.00;2.88;;;14.30;64.80;;;;;;5097763;28;20171;-70
2022/04/11 12:07:26;;;;;;;6.63;3.47;;;14.30;66.20;;;;;;5094526;28;20126;-70
2022/04/11 12:09:52;;;;;;;5.22;3.25;;;14.50;64.90;;;;;;5094339;28;20106;-70
2022/04/11 12:12:20;;;;;;;2.67;2.03;;;14.40;63.90;;;;;;5096061;28;20035;-71
2022/04/11 12:15:06;;;;;;;4.90;2.50;;;14.40;59.60;;;;;;5082503;28;22497;-71
2022/04/11 12:17:31;;;;;;;6.70;2.83;;;14.40;60.70;;;;;;5085056;28;20028;-71
2022/04/11 12:20:11;;;;;;;5.90;3.42;;;14.50;61.00;;;;;;5085719;28;20101;-70
2022/04/11 12:22:38;;;;;;;4.32;2.20;;;14.60;60.60;;;;;;5092490;28;20024;-71
2022/04/11 12:25:24;;;;;;;5.28;2.03;;;14.90;60.30;;;;;;5085722;28;20504;-70
2022/04/11 12:27:50;;;;;;;3.58;1.92;;;15.10;59.10;;;;;;5085770;28;20087;-71
2022/04/11 12:30:17;;;;;;;4.93;1.77;;;15.10;54.40;;;;;;5083623;28;20055;-70
2022/04/11 12:32:43;;;;;;;3.55;1.85;;;14.90;54.30;;;;;;5083958;28;20036;-71
2022/04/11 12:35:19;;;;;;;6.35;2.35;;;15.00;56.30;;;;;;5082535;28;20558;-71
2022/04/11 12:37:49;;;;;;;2.63;1.50;;;15.10;57.50;;;;;;5097216;28;20132;-71
2022/04/11 12:40:16;;;;;;;3.10;1.70;;;15.20;54.70;;;;;;5091601;28;20036;-70
2022/04/11 12:42:42;;;;;;;3.28;1.65;;;15.20;54.90;;;;;;5095709;28;20024;-71
2022/04/11 12:45:11;;;;;;;5.28;1.80;;;15.30;54.30;;;;;;5083867;28;20038;-71
2022/04/11 12:48:06;;;;;;;7.18;2.10;;;15.40;55.90;;;;;;5090377;28;20403;-72
2022/04/11 12:50:33;;;;;;;4.78;1.92;;;15.50;53.90;;;;;;5094341;28;20523;-71
2022/04/11 12:52:59;;;;;;;5.32;1.95;;;15.50;51.60;;;;;;5092955;28;20844;-70
2022/04/11 12:55:27;;;;;;;3.55;1.92;;;15.60;53.90;;;;;;5081945;28;20123;-71
2022/04/11 12:58:10;;;;;;;2.20;1.38;;;15.70;55.70;;;;;;5087273;28;20540;-70
2022/04/11 13:00:37;;;;;;;;;;;15.80;55.60;;;;;;5085108;28;20395;-70
2022/04/11 13:03:04;;;;;;;3.70;1.92;;;15.70;53.30;;;;;;5090231;28;19919;-71
2022/04/11 13:05:32;;;;;;;3.35;1.70;;;15.80;53.80;;;;;;5088188;28;20518;-70
2022/04/11 13:08:01;;;;;;;3.50;1.80;;;15.90;53.00;;;;;;5090827;28;20042;-70
2022/04/11 13:10:30;;;;;;;3.03;1.83;;;15.90;52.40;;;;;;5083695;28;20054;-70
2022/04/11 13:12:57;;;;;;;3.35;1.90;;;15.70;53.40;;;;;;5084862;28;20456;-70
2022/04/11 13:15:23;;;;;;;6.05;3.13;;;15.50;54.00;;;;;;5085623;28;20701;-70
2022/04/11 13:20:34;;;;;;;6.22;2.10;;;15.70;54.10;;;;;;5096082;28;20035;-71
2022/04/11 13:23:00;;;;;;;5.72;2.60;;;15.80;56.00;;;;;;5083454;28;20129;-71
2022/04/11 13:25:25;;;;;;;4.22;2.17;;;15.70;52.50;;;;;;5090751;28;20016;-71
2022/04/11 13:27:51;;;;;;;6.07;2.03;;;15.70;54.00;;;;;;5093154;28;20111;-71
2022/04/11 13:30:17;;;;;;;2.92;2.20;;;15.90;54.10;;;;;;5089984;28;20460;-71
2022/04/11 13:32:42;;;;;;;3.88;2.10;;;15.90;53.50;;;;;;5091738;28;20047;-71
2022/04/11 13:35:09;;;;;;;3.95;1.95;;;16.00;52.30;;;;;;5094038;28;20036;-71
2022/04/11 13:37:36;;;;;;;4.72;1.95;;;16.10;52.70;;;;;;5088410;28;20161;-71
2022/04/11 13:40:03;;;;;;;6.10;1.90;;;16.00;54.00;;;;;;5087150;28;20107;-71
2022/04/11 13:42:29;;;;;;;6.63;2.42;;;16.00;52.50;;;;;;5092327;28;20609;-71
2022/04/11 13:44:54;;;;;;;3.17;1.60;;;15.90;51.70;;;;;;5083425;28;20111;-69
2022/04/11 13:47:20;;;;;;;3.67;1.70;;;16.00;53.90;;;;;;5096651;28;20486;-69
2022/04/11 13:49:45;;;;;;;6.05;1.85;;;16.10;53.30;;;;;;5095921;28;20024;-69
2022/04/11 13:52:11;;;;;;;3.28;1.80;;;16.00;51.60;;;;;;5087569;28;20043;-70
2022/04/11 13:54:37;;;;;;;4.13;1.88;;;15.90;51.70;;;;;;5091664;28;20450;-70
2022/04/11 13:57:03;;;;;;;7.50;1.92;;;16.00;52.80;;;;;;5095197;28;20030;-70
2022/04/11 13:59:28;;;;;;;6.05;2.10;;;16.10;52.50;;;;;;5089449;28;20472;-70
2022/04/11 14:01:55;;;;;;;3.25;1.90;;;16.20;53.00;;;;;;5092756;28;20142;-70
2022/04/11 14:04:22;;;;;;;3.67;2.22;;;16.30;53.00;;;;;;5085839;28;20028;-70
2022/04/11 14:06:48;;;;;;;4.03;1.98;;;16.30;50.40;;;;;;5086831;28;20399;-70
2022/04/11 14:09:14;;;;;;;3.97;1.92;;;16.10;51.30;;;;;;5089965;28;20492;-70
2022/04/11 14:11:40;;;;;;;5.22;2.10;;;16.10;52.60;;;;;;5095952;28;20063;-70
2022/04/11 14:14:06;;;;;;;2.08;1.80;;;16.20;53.10;;;;;;5095930;28;20036;-70
2022/04/11 14:16:32;;;;;;;3.60;2.15;;;16.20;52.40;;;;;;5087593;28;20036;-71